Time;durP1;ratioP1;P1;durP2;ratioP2;P2;SDS_P1;SDS_P2;PMS_P1;PMS_P2;Temp;Humidity;BMP_temperature;BMP_pressure;BME280_temperature;BME280_humidity;BME280_pressure;Samples;Min_cycle;Max_cycle;Signal;HPM_P1;HPM_P2
2022/11/24 00:00:36;;;;;;;3.67;1.00;;;;;;;;;;5033912;28;20795;-64
2022/11/24 00:03:03;;;;;;;5.03;1.20;;;;;;;;;;5047367;28;20044;-62
2022/11/24 00:05:30;;;;;;;5.05;1.30;;;;;;;;;;5033554;28;20049;-64
2022/11/24 00:07:56;;;;;;;8.18;2.20;;;;;;;;;;5033120;28;20059;-66
2022/11/24 00:10:23;;;;;;;12.25;1.90;;;;;;;;;;5032796;28;20091;-60
2022/11/24 00:12:49;;;;;;;9.38;1.63;;;;;;;;;;5033794;28;20577;-63
2022/11/24 00:15:16;;;;;;;7.47;1.23;;;;;;;;;;5029878;28;20041;-60
2022/11/24 00:17:43;;;;;;;4.40;1.02;;;;;;;;;;5030642;28;20061;-61
2022/11/24 00:20:09;;;;;;;3.95;1.00;;;;;;;;;;5032552;28;20029;-65
2022/11/24 00:22:36;;;;;;;3.97;1.00;;;;;;;;;;5030587;28;20877;-62
2022/11/24 00:25:03;;;;;;;4.88;1.05;;;;;;;;;;5040584;28;20147;-62
2022/11/24 00:27:29;;;;;;;4.68;1.08;;;;;;;;;;5030209;28;20033;-62
2022/11/24 00:29:58;;;;;;;8.52;1.42;;;;;;;;;;5030399;28;20037;-62
2022/11/24 00:32:28;;;;;;;5.25;1.15;;;;;;;;;;5033993;28;20041;-61
2022/11/24 00:34:54;;;;;;;4.80;1.33;;;;;;;;;;5030715;28;20761;-62
2022/11/24 00:37:21;;;;;;;4.93;1.20;;;;;;;;;;5029521;28;20052;-59
2022/11/24 00:39:48;;;;;;;7.30;1.48;;;;;;;;;;5033290;28;20035;-62
2022/11/24 00:42:14;;;;;;;5.03;1.17;;;;;;;;;;5032775;28;20130;-62
2022/11/24 00:44:41;;;;;;;5.13;1.02;;;;;;;;;;5032145;28;20529;-62
2022/11/24 00:47:07;;;;;;;3.10;0.90;;;;;;;;;;5032522;28;20039;-63
2022/11/24 00:49:35;;;;;;;4.47;1.30;;;;;;;;;;5045290;28;20059;-64
2022/11/24 00:52:01;;;;;;;12.52;1.42;;;;;;;;;;5031745;28;20418;-63
2022/11/24 00:54:28;;;;;;;3.75;0.90;;;;;;;;;;5046683;28;20118;-63
2022/11/24 00:56:55;;;;;;;3.22;1.00;;;;;;;;;;5033347;28;20120;-62
2022/11/24 00:59:21;;;;;;;6.32;1.20;;;;;;;;;;5030626;28;20042;-60
2022/11/24 01:01:48;;;;;;;9.27;1.48;;;;;;;;;;5031608;28;20458;-62
2022/11/24 01:04:14;;;;;;;6.22;1.38;;;;;;;;;;5031885;28;20037;-60
2022/11/24 01:06:41;;;;;;;5.05;1.15;;;;;;;;;;5030551;28;20048;-59
2022/11/24 01:09:08;;;;;;;7.00;1.40;;;;;;;;;;5034223;28;20128;-60
2022/11/24 01:14:22;;;;;;;3.92;1.17;;;;;;;;;;5033408;28;20044;-63
2022/11/24 01:16:48;;;;;;;4.18;1.10;;;;;;;;;;5029940;28;20774;-60
2022/11/24 01:19:15;;;;;;;6.25;1.35;;;;;;;;;;5047547;28;20064;-64
2022/11/24 01:21:41;;;;;;;4.32;1.33;;;;;;;;;;5030910;28;20226;-61
2022/11/24 01:24:09;;;;;;;8.38;2.10;;;;;;;;;;5032534;28;20596;-61
2022/11/24 01:26:36;;;;;;;8.38;1.63;;;;;;;;;;5031074;28;20051;-61
2022/11/24 01:29:02;;;;;;;8.77;1.92;;;;;;;;;;5032486;28;20029;-63
2022/11/24 01:31:29;;;;;;;4.57;1.33;;;;;;;;;;5029609;28;20111;-61
2022/11/24 01:33:55;;;;;;;6.38;1.15;;;;;;;;;;5039745;28;20038;-64
2022/11/24 01:36:22;;;;;;;4.55;1.35;;;;;;;;;;5031774;28;20044;-62
2022/11/24 01:38:49;;;;;;;5.43;1.15;;;;;;;;;;5032381;28;20128;-62
2022/11/24 01:41:17;;;;;;;7.10;1.23;;;;;;;;;;5035589;28;20141;-62
2022/11/24 01:43:44;;;;;;;2.88;1.10;;;;;;;;;;5035711;28;20456;-63
2022/11/24 01:46:13;;;;;;;7.63;1.75;;;;;;;;;;5034769;28;20118;-62
2022/11/24 01:48:45;;;;;;;4.47;1.58;;;;;;;;;;5038228;28;20036;-60
2022/11/24 01:51:17;;;;;;;5.55;1.30;;;;;;;;;;5040770;28;20041;-61
2022/11/24 01:53:45;;;;;;;6.93;1.08;;;;;;;;;;5015207;28;20033;-64
2022/11/24 01:56:12;;;;;;;7.40;1.52;;;;;;;;;;5017400;28;20045;-63
2022/11/24 01:58:40;;;;;;;5.95;1.52;;;;;;;;;;5016091;28;20060;-62
2022/11/24 02:01:06;;;;;;;4.47;1.38;;;;;;;;;;5018351;28;20053;-64
2022/11/24 02:03:34;;;;;;;9.60;1.75;;;;;;;;;;5015521;28;20052;-61
2022/11/24 02:06:06;;;;;;;4.65;1.40;;;;;;;;;;5017007;28;20042;-61
2022/11/24 02:08:40;;;;;;;5.38;1.42;;;;;;;;;;5015829;28;20065;-63
2022/11/24 02:11:07;;;;;;;6.40;2.60;;;;;;;;;;5017124;28;20392;-62
2022/11/24 02:13:34;;;;;;;2.97;1.05;;;;;;;;;;5014914;28;20052;-64
2022/11/24 02:16:02;;;;;;;3.35;1.42;;;;;;;;;;5015493;28;20074;-63
2022/11/24 02:18:28;;;;;;;4.55;2.00;;;;;;;;;;5017075;28;20056;-61
2022/11/24 02:20:55;;;;;;;9.98;4.20;;;;;;;;;;5013781;28;20033;-60
2022/11/24 02:23:22;;;;;;;10.18;3.63;;;;;;;;;;5012896;28;20045;-63
2022/11/24 02:25:51;;;;;;;5.43;2.20;;;;;;;;;;5015451;28;20136;-63
2022/11/24 02:28:19;;;;;;;7.85;1.80;;;;;;;;;;5015306;28;20494;-69
2022/11/24 02:30:46;;;;;;;4.32;1.60;;;;;;;;;;5023693;28;20121;-63
2022/11/24 02:33:13;;;;;;;4.93;1.60;;;;;;;;;;5015795;28;20045;-60
2022/11/24 02:35:40;;;;;;;4.95;1.40;;;;;;;;;;5027968;28;20042;-61
2022/11/24 02:38:06;;;;;;;6.60;1.75;;;;;;;;;;5017085;28;20046;-63
2022/11/24 02:40:33;;;;;;;6.35;1.67;;;;;;;;;;5014206;28;20120;-62
2022/11/24 02:43:08;;;;;;;5.20;1.70;;;;;;;;;;5014636;28;20046;-62
2022/11/24 02:45:35;;;;;;;8.38;1.50;;;;;;;;;;5027747;28;20045;-63
2022/11/24 02:48:02;;;;;;;9.35;1.63;;;;;;;;;;5026408;28;20037;-63
2022/11/24 02:50:28;;;;;;;4.40;1.13;;;;;;;;;;5012598;28;20148;-64
2022/11/24 02:52:55;;;;;;;3.08;1.02;;;;;;;;;;5013098;28;20050;-63
2022/11/24 02:55:22;;;;;;;3.03;1.17;;;;;;;;;;5014806;28;20045;-62
2022/11/24 02:57:49;;;;;;;5.57;1.15;;;;;;;;;;5015035;28;20169;-60
2022/11/24 03:00:15;;;;;;;3.92;1.15;;;;;;;;;;5014990;28;20061;-63
2022/11/24 03:02:42;;;;;;;4.68;1.40;;;;;;;;;;5012075;28;20435;-60
2022/11/24 03:05:10;;;;;;;8.63;1.92;;;;;;;;;;5014231;28;20132;-62
2022/11/24 03:07:37;;;;;;;5.28;1.30;;;;;;;;;;5015235;28;20128;-63
2022/11/24 03:10:04;;;;;;;6.53;1.80;;;;;;;;;;5015410;28;20041;-63
2022/11/24 03:12:30;;;;;;;7.88;1.75;;;;;;;;;;5014146;28;20135;-62
2022/11/24 03:14:57;;;;;;;7.72;1.95;;;;;;;;;;5014521;28;20478;-65
2022/11/24 03:17:24;;;;;;;9.00;2.47;;;;;;;;;;5012363;28;20061;-65
2022/11/24 03:19:50;;;;;;;10.15;2.20;;;;;;;;;;5015045;28;20457;-64
2022/11/24 03:22:17;;;;;;;5.63;1.55;;;;;;;;;;5016274;28;20505;-63
2022/11/24 03:24:43;;;;;;;5.43;1.48;;;;;;;;;;5012804;28;20096;-61
2022/11/24 03:27:10;;;;;;;10.73;3.50;;;;;;;;;;5013965;28;20049;-65
2022/11/24 03:29:37;;;;;;;8.60;2.25;;;;;;;;;;5013457;28;20532;-63
2022/11/24 03:32:03;;;;;;;6.25;2.13;;;;;;;;;;5012619;28;20058;-66
2022/11/24 03:34:30;;;;;;;9.88;1.90;;;;;;;;;;5013666;28;20047;-62
2022/11/24 03:36:57;;;;;;;7.13;2.05;;;;;;;;;;5013308;28;20058;-64
2022/11/24 03:39:23;;;;;;;6.53;1.67;;;;;;;;;;5028648;28;20099;-64
2022/11/24 03:41:50;;;;;;;6.97;2.30;;;;;;;;;;5014646;28;20527;-63
2022/11/24 03:44:17;;;;;;;7.68;2.17;;;;;;;;;;5013947;28;20049;-64
2022/11/24 03:46:44;;;;;;;10.13;2.35;;;;;;;;;;5010359;28;20045;-63
2022/11/24 03:49:10;;;;;;;14.40;2.22;;;;;;;;;;5014160;28;20034;-63
2022/11/24 03:51:37;;;;;;;6.05;2.17;;;;;;;;;;5012084;28;20033;-64
2022/11/24 03:54:03;;;;;;;5.70;2.25;;;;;;;;;;5012863;28;20099;-59
2022/11/24 03:56:30;;;;;;;9.50;2.40;;;;;;;;;;5010836;28;20078;-63
2022/11/24 03:58:57;;;;;;;6.35;2.30;;;;;;;;;;5013074;28;20037;-62
2022/11/24 04:01:23;;;;;;;6.75;2.70;;;;;;;;;;5028737;28;20145;-63
2022/11/24 04:03:50;;;;;;;9.10;2.72;;;;;;;;;;5026799;28;20037;-61
2022/11/24 04:06:16;;;;;;;8.50;3.10;;;;;;;;;;5011784;28;20038;-63
2022/11/24 04:08:43;;;;;;;11.68;2.55;;;;;;;;;;5011782;28;20071;-63
2022/11/24 04:12:42;;;;;;;7.57;2.60;;;;;;;;;;5016597;28;20057;-66
2022/11/24 04:13:56;;;;;;;12.77;2.92;;;;;;;;;;5031965;28;20132;-64
2022/11/24 04:16:22;;;;;;;9.77;2.60;;;;;;;;;;5032570;28;20493;-62
2022/11/24 04:18:51;;;;;;;13.38;3.03;;;;;;;;;;5032132;28;20056;-63
2022/11/24 04:21:18;;;;;;;9.30;3.28;;;;;;;;;;5034805;28;20807;-62
2022/11/24 04:23:45;;;;;;;8.35;2.90;;;;;;;;;;5047171;28;20069;-62
2022/11/24 04:26:11;;;;;;;9.77;3.00;;;;;;;;;;5040405;28;20042;-62
2022/11/24 04:28:38;;;;;;;9.85;3.17;;;;;;;;;;5033704;28;20045;-62
2022/11/24 04:31:05;;;;;;;10.63;2.92;;;;;;;;;;5031504;28;20682;-63
2022/11/24 04:33:32;;;;;;;7.38;2.58;;;;;;;;;;5031764;28;20437;-63
2022/11/24 04:35:59;;;;;;;10.57;2.67;;;;;;;;;;5032510;28;20064;-62
2022/11/24 04:38:25;;;;;;;9.48;3.03;;;;;;;;;;5032144;28;20056;-62
2022/11/24 04:40:52;;;;;;;6.57;2.80;;;;;;;;;;5032142;28;20793;-64
2022/11/24 04:43:20;;;;;;;11.63;2.65;;;;;;;;;;5031671;28;20159;-68
2022/11/24 04:45:47;;;;;;;5.68;1.83;;;;;;;;;;5033908;28;20060;-64
2022/11/24 04:48:13;;;;;;;6.82;2.60;;;;;;;;;;5031884;28;20051;-63
2022/11/24 04:50:40;;;;;;;6.72;2.60;;;;;;;;;;5031860;28;20040;-65
2022/11/24 04:53:07;;;;;;;4.78;1.73;;;;;;;;;;5035096;28;20034;-60
2022/11/24 04:55:33;;;;;;;6.43;1.77;;;;;;;;;;5032511;28;20076;-63
2022/11/24 04:58:00;;;;;;;4.82;1.17;;;;;;;;;;5034676;28;20482;-61
2022/11/24 05:00:27;;;;;;;4.03;1.60;;;;;;;;;;5036383;28;20064;-61
2022/11/24 05:02:53;;;;;;;4.35;1.50;;;;;;;;;;5052199;28;20041;-62
2022/11/24 05:05:20;;;;;;;5.15;1.73;;;;;;;;;;5036149;28;20044;-67
2022/11/24 05:07:46;;;;;;;5.57;1.90;;;;;;;;;;5027186;28;20034;-64
2022/11/24 05:12:58;;;;;;;3.65;1.40;;;;;;;;;;5030428;28;20040;-64
2022/11/24 05:15:25;;;;;;;4.13;0.93;;;;;;;;;;5031477;28;20040;-62
2022/11/24 05:17:51;;;;;;;4.45;1.05;;;;;;;;;;5035911;28;20058;-64
2022/11/24 05:20:18;;;;;;;4.50;1.05;;;;;;;;;;5045701;28;20058;-63
2022/11/24 05:22:45;;;;;;;2.58;0.90;;;;;;;;;;5035187;28;20036;-62
2022/11/24 05:25:13;;;;;;;3.30;1.00;;;;;;;;;;5037453;28;20109;-63
2022/11/24 05:27:39;;;;;;;7.90;1.10;;;;;;;;;;5035680;28;20044;-63
2022/11/24 05:30:06;;;;;;;2.53;0.90;;;;;;;;;;5036290;28;20040;-62
2022/11/24 05:32:33;;;;;;;4.00;1.00;;;;;;;;;;5036802;28;20840;-63
2022/11/24 05:35:01;;;;;;;6.30;1.00;;;;;;;;;;5034916;28;20447;-61
2022/11/24 05:37:30;;;;;;;4.50;0.90;;;;;;;;;;5035046;28;20052;-62
2022/11/24 05:39:57;;;;;;;2.78;0.93;;;;;;;;;;5036574;28;20033;-65
2022/11/24 05:42:42;;;;;;;3.00;0.80;;;;;;;;;;5048469;28;20033;-63
2022/11/24 05:45:10;;;;;;;5.97;1.10;;;;;;;;;;5048189;28;20500;-62
2022/11/24 05:47:37;;;;;;;3.22;1.00;;;;;;;;;;5042544;28;20041;-63
2022/11/24 05:50:04;;;;;;;6.88;1.17;;;;;;;;;;5032674;28;20526;-64
2022/11/24 05:52:31;;;;;;;3.30;1.08;;;;;;;;;;5034481;28;20064;-62
2022/11/24 05:54:57;;;;;;;4.05;1.08;;;;;;;;;;5049107;28;20040;-63
2022/11/24 05:57:24;;;;;;;3.65;1.10;;;;;;;;;;5034838;28;20045;-63
2022/11/24 05:59:51;;;;;;;3.08;0.98;;;;;;;;;;5036248;28;20062;-63
2022/11/24 06:02:18;;;;;;;4.10;1.30;;;;;;;;;;5035922;28;20048;-63
2022/11/24 06:04:45;;;;;;;5.10;1.40;;;;;;;;;;5030029;28;20044;-65
2022/11/24 06:07:12;;;;;;;3.92;1.20;;;;;;;;;;5014045;28;22620;-64
2022/11/24 06:09:39;;;;;;;3.28;1.20;;;;;;;;;;5014303;28;20064;-63
2022/11/24 06:12:07;;;;;;;4.30;1.40;;;;;;;;;;5017629;28;20041;-65
2022/11/24 06:14:33;;;;;;;9.52;1.20;;;;;;;;;;5013847;28;20041;-65
2022/11/24 06:17:00;;;;;;;4.30;1.33;;;;;;;;;;5014243;28;20180;-63
2022/11/24 06:19:27;;;;;;;6.40;1.20;;;;;;;;;;5018601;28;20046;-61
2022/11/24 06:21:53;;;;;;;6.32;1.10;;;;;;;;;;5017933;28;20117;-62
2022/11/24 06:24:20;;;;;;;3.30;1.25;;;;;;;;;;5014815;28;20120;-64
2022/11/24 06:26:47;;;;;;;4.82;1.10;;;;;;;;;;5012546;28;20051;-63
2022/11/24 06:29:13;;;;;;;3.40;0.93;;;;;;;;;;5016393;28;20470;-62
2022/11/24 06:31:40;;;;;;;4.07;1.33;;;;;;;;;;5014090;28;20091;-63
2022/11/24 06:34:09;;;;;;;4.95;1.10;;;;;;;;;;5018718;28;20064;-63
2022/11/24 06:36:36;;;;;;;4.10;1.40;;;;;;;;;;5013055;28;20034;-62
2022/11/24 06:39:03;;;;;;;3.10;1.10;;;;;;;;;;5014177;28;20073;-63
2022/11/24 06:41:30;;;;;;;3.50;1.17;;;;;;;;;;5023048;28;20048;-64
2022/11/24 06:43:57;;;;;;;9.73;1.23;;;;;;;;;;5015949;28;20112;-62
2022/11/24 06:46:24;;;;;;;4.30;1.20;;;;;;;;;;5014910;28;20084;-63
2022/11/24 06:48:53;;;;;;;4.15;1.30;;;;;;;;;;5032236;28;20042;-62
2022/11/24 06:51:20;;;;;;;2.80;1.00;;;;;;;;;;5023408;28;20041;-64
2022/11/24 06:53:46;;;;;;;4.15;1.38;;;;;;;;;;5015431;28;20045;-63
2022/11/24 06:56:14;;;;;;;3.75;1.10;;;;;;;;;;5013024;28;20064;-64
2022/11/24 06:58:45;;;;;;;4.50;1.40;;;;;;;;;;5014935;28;20127;-62
2022/11/24 07:01:15;;;;;;;4.15;1.30;;;;;;;;;;5017491;28;20120;-63
2022/11/24 07:03:42;;;;;;;4.85;1.20;;;;;;;;;;5015059;28;20136;-64
2022/11/24 07:06:09;;;;;;;3.38;1.30;;;;;;;;;;5011626;28;20034;-64
2022/11/24 07:08:35;;;;;;;4.07;1.25;;;;;;;;;;5014609;28;20156;-64
2022/11/24 07:11:06;;;;;;;3.13;1.15;;;;;;;;;;5014656;28;20060;-64
2022/11/24 07:13:33;;;;;;;4.05;0.90;;;;;;;;;;5010729;28;20818;-64
2022/11/24 07:16:00;;;;;;;4.93;0.93;;;;;;;;;;5015036;28;20120;-64
2022/11/24 07:18:26;;;;;;;2.70;1.00;;;;;;;;;;5013472;28;20128;-63
2022/11/24 07:20:53;;;;;;;3.58;1.10;;;;;;;;;;5017430;28;20033;-63
2022/11/24 07:23:20;;;;;;;2.65;0.82;;;;;;;;;;5012086;28;20056;-63
2022/11/24 07:25:46;;;;;;;2.63;0.93;;;;;;;;;;5028901;28;20095;-64
2022/11/24 07:28:13;;;;;;;2.03;0.65;;;;;;;;;;5015744;28;20041;-63
2022/11/24 07:30:40;;;;;;;2.35;0.70;;;;;;;;;;5014829;28;20590;-61
2022/11/24 07:33:06;;;;;;;1.95;0.60;;;;;;;;;;5029929;28;20053;-63
2022/11/24 07:35:33;;;;;;;2.70;0.77;;;;;;;;;;5015952;28;20026;-64
2022/11/24 07:37:59;;;;;;;3.15;0.80;;;;;;;;;;5029743;28;20069;-63
2022/11/24 07:40:26;;;;;;;2.70;0.77;;;;;;;;;;5013272;28;20436;-64
2022/11/24 07:42:53;;;;;;;2.55;0.70;;;;;;;;;;5014703;28;20036;-62
2022/11/24 07:45:20;;;;;;;2.45;0.80;;;;;;;;;;5014594;28;20570;-63
2022/11/24 07:47:46;;;;;;;2.80;0.70;;;;;;;;;;5017661;28;20079;-64
2022/11/24 07:50:13;;;;;;;3.45;0.95;;;;;;;;;;5015158;28;20091;-65
2022/11/24 07:52:40;;;;;;;2.75;0.80;;;;;;;;;;5027453;28;20037;-64
2022/11/24 07:55:07;;;;;;;3.03;0.80;;;;;;;;;;5014036;28;20045;-63
2022/11/24 07:57:33;;;;;;;2.80;0.70;;;;;;;;;;5012428;28;20122;-64
2022/11/24 08:00:00;;;;;;;2.30;0.80;;;;;;;;;;5015145;28;20045;-62
2022/11/24 08:02:26;;;;;;;3.38;0.80;;;;;;;;;;5014775;28;20040;-61
2022/11/24 08:04:53;;;;;;;2.85;0.75;;;;;;;;;;5011864;28;20156;-62
2022/11/24 08:07:20;;;;;;;3.00;0.80;;;;;;;;;;5010403;28;21367;-63
2022/11/24 08:09:47;;;;;;;2.80;0.70;;;;;;;;;;5013848;28;20038;-63
2022/11/24 08:12:15;;;;;;;3.00;0.90;;;;;;;;;;5013408;28;20068;-62
2022/11/24 08:14:42;;;;;;;4.15;1.00;;;;;;;;;;5021748;28;20056;-63
2022/11/24 08:17:08;;;;;;;2.83;0.90;;;;;;;;;;5013249;28;20049;-62
2022/11/24 08:19:35;;;;;;;2.55;0.70;;;;;;;;;;5012207;28;20034;-69
2022/11/24 08:22:02;;;;;;;2.38;0.80;;;;;;;;;;5012467;28;20034;-64
2022/11/24 08:24:30;;;;;;;2.53;0.70;;;;;;;;;;5014948;28;20422;-64
2022/11/24 08:26:56;;;;;;;3.53;0.90;;;;;;;;;;5014713;28;20029;-63
2022/11/24 08:29:23;;;;;;;3.17;0.73;;;;;;;;;;5026608;28;20627;-64
2022/11/24 08:31:49;;;;;;;2.88;0.98;;;;;;;;;;5014001;28;20037;-62
2022/11/24 08:34:16;;;;;;;3.08;0.90;;;;;;;;;;5016203;28;20513;-64
2022/11/24 08:36:43;;;;;;;3.00;0.80;;;;;;;;;;5011774;28;20399;-64
2022/11/24 08:39:10;;;;;;;2.88;1.00;;;;;;;;;;5012610;28;20088;-62
2022/11/24 08:41:37;;;;;;;2.30;0.70;;;;;;;;;;5012939;28;20568;-62
2022/11/24 08:44:04;;;;;;;3.40;1.00;;;;;;;;;;5013176;28;20033;-64
2022/11/24 08:46:30;;;;;;;2.60;0.82;;;;;;;;;;5014186;28;20577;-65
2022/11/24 08:48:57;;;;;;;3.20;0.80;;;;;;;;;;5015982;28;20045;-63
2022/11/24 08:51:24;;;;;;;2.45;0.90;;;;;;;;;;5012062;28;20068;-63
2022/11/24 08:54:01;;;;;;;2.80;1.00;;;;;;;;;;5025375;28;20026;-64
2022/11/24 08:56:28;;;;;;;3.15;1.00;;;;;;;;;;5011535;28;20355;-62
2022/11/24 08:58:55;;;;;;;2.65;0.90;;;;;;;;;;5013634;28;20053;-64
2022/11/24 09:01:22;;;;;;;5.35;1.10;;;;;;;;;;5012076;28;20061;-62
2022/11/24 09:03:50;;;;;;;2.88;1.00;;;;;;;;;;5008519;28;20037;-64
2022/11/24 09:06:17;;;;;;;2.80;1.00;;;;;;;;;;5014545;28;20034;-63
2022/11/24 09:08:44;;;;;;;5.88;1.20;;;;;;;;;;5012726;28;20077;-64
2022/11/24 09:11:12;;;;;;;2.88;1.05;;;;;;;;;;5029948;28;20399;-64
2022/11/24 09:13:39;;;;;;;3.20;1.10;;;;;;;;;;5018713;28;20049;-63
2022/11/24 09:16:07;;;;;;;2.80;1.00;;;;;;;;;;5022991;28;20037;-64
2022/11/24 09:18:34;;;;;;;5.40;1.08;;;;;;;;;;5013551;28;20057;-62
2022/11/24 09:21:07;;;;;;;3.35;0.98;;;;;;;;;;5013230;28;20053;-63
2022/11/24 09:23:34;;;;;;;;;;;;;;;;;;5014419;28;20043;-65
2022/11/24 09:26:07;;;;;;;3.25;1.13;;;;;;;;;;5014546;28;20448;-63
2022/11/24 09:28:34;;;;;;;4.68;1.13;;;;;;;;;;5014931;28;20047;-63
2022/11/24 09:31:02;;;;;;;9.57;1.20;;;;;;;;;;5012541;28;20585;-64
2022/11/24 09:33:28;;;;;;;3.22;1.17;;;;;;;;;;5010029;28;20126;-62
2022/11/24 09:35:55;;;;;;;3.08;1.10;;;;;;;;;;5010824;28;20114;-62
2022/11/24 09:38:22;;;;;;;2.92;1.00;;;;;;;;;;5025392;28;20045;-63
2022/11/24 09:40:49;;;;;;;2.97;1.13;;;;;;;;;;5012210;28;20032;-66
2022/11/24 09:43:18;;;;;;;3.22;1.00;;;;;;;;;;5011725;28;20092;-66
2022/11/24 09:45:48;;;;;;;3.63;1.25;;;;;;;;;;5019280;28;20786;-64
2022/11/24 09:48:23;;;;;;;3.50;1.00;;;;;;;;;;5027526;28;20040;-63
2022/11/24 09:50:51;;;;;;;3.08;0.82;;;;;;;;;;5011329;28;20117;-63
2022/11/24 09:53:36;;;;;;;2.90;0.80;;;;;;;;;;5011353;28;20037;-62
2022/11/24 09:56:12;;;;;;;3.47;0.90;;;;;;;;;;5010215;28;20053;-63
2022/11/24 09:58:41;;;;;;;2.70;0.98;;;;;;;;;;5018535;28;20196;-62
2022/11/24 10:01:12;;;;;;;2.95;1.00;;;;;;;;;;5016583;28;21931;-63
2022/11/24 10:03:44;;;;;;;2.78;0.90;;;;;;;;;;5011311;28;20449;-63
2022/11/24 10:06:34;;;;;;;2.30;0.80;;;;;;;;;;5017662;28;20131;-63
2022/11/24 10:09:10;;;;;;;2.40;0.80;;;;;;;;;;5007700;28;20483;-62
2022/11/24 10:11:41;;;;;;;5.15;0.90;;;;;;;;;;5014830;28;20129;-63
2022/11/24 10:14:27;;;;;;;2.97;1.20;;;;;;;;;;5013564;28;20038;-62
2022/11/24 10:17:06;;;;;;;3.92;1.17;;;;;;;;;;5012494;28;20038;-62
2022/11/24 10:19:45;;;;;;;3.00;1.10;;;;;;;;;;5013021;28;20057;-63
2022/11/24 10:22:14;;;;;;;3.65;1.00;;;;;;;;;;5014761;28;20055;-65
2022/11/24 10:24:44;;;;;;;3.25;0.95;;;;;;;;;;5013278;28;20057;-62
2022/11/24 10:27:16;;;;;;;3.78;1.10;;;;;;;;;;5015255;28;20041;-63
2022/11/24 10:29:43;;;;;;;4.68;1.23;;;;;;;;;;5015339;28;20045;-63
2022/11/24 10:32:25;;;;;;;3.35;1.00;;;;;;;;;;5014909;28;20171;-65
2022/11/24 10:34:53;;;;;;;3.45;1.00;;;;;;;;;;5015093;28;20037;-64
2022/11/24 10:37:26;;;;;;;2.83;1.00;;;;;;;;;;5012509;28;20119;-64
2022/11/24 10:39:53;;;;;;;;;;;;;;;;;;5013499;28;20054;-64
2022/11/24 10:42:30;;;;;;;5.55;1.08;;;;;;;;;;5012439;28;19921;-64
2022/11/24 10:45:01;;;;;;;2.72;0.95;;;;;;;;;;5012309;28;20542;-64
2022/11/24 10:47:27;;;;;;;3.50;1.00;;;;;;;;;;5014158;28;20100;-65
2022/11/24 10:49:56;;;;;;;2.42;0.77;;;;;;;;;;5015217;28;20520;-64
2022/11/24 10:52:24;;;;;;;3.75;0.88;;;;;;;;;;5012553;28;20030;-65
2022/11/24 10:54:58;;;;;;;3.50;0.90;;;;;;;;;;5015017;28;20459;-64
2022/11/24 10:57:29;;;;;;;4.18;1.10;;;;;;;;;;5012705;28;20498;-69
2022/11/24 10:59:55;;;;;;;2.95;1.00;;;;;;;;;;5029720;28;20040;-65
2022/11/24 11:02:30;;;;;;;3.78;1.00;;;;;;;;;;5012936;28;20049;-64
2022/11/24 11:04:57;;;;;;;2.38;0.82;;;;;;;;;;5013515;28;20052;-63
2022/11/24 11:07:25;;;;;;;3.13;0.75;;;;;;;;;;5012510;28;20037;-63
2022/11/24 11:10:11;;;;;;;2.17;0.70;;;;;;;;;;5013658;28;20065;-64
2022/11/24 11:12:38;;;;;;;2.75;0.90;;;;;;;;;;5014124;28;20048;-63
2022/11/24 11:15:24;;;;;;;3.45;0.90;;;;;;;;;;5011235;28;20522;-63
2022/11/24 11:17:53;;;;;;;2.70;0.70;;;;;;;;;;5012098;28;20054;-63
2022/11/24 11:20:26;;;;;;;2.00;0.63;;;;;;;;;;5013299;28;20036;-63
2022/11/24 11:22:55;;;;;;;3.08;0.70;;;;;;;;;;5012447;28;20045;-64
2022/11/24 11:25:30;;;;;;;1.88;0.60;;;;;;;;;;5014348;28;20061;-61
2022/11/24 11:28:16;;;;;;;1.25;0.50;;;;;;;;;;5012524;28;20045;-63
2022/11/24 11:30:54;;;;;;;1.83;0.60;;;;;;;;;;5014146;28;20136;-63
2022/11/24 11:33:25;;;;;;;2.35;0.73;;;;;;;;;;5014729;28;20505;-63
2022/11/24 11:35:52;;;;;;;2.65;0.60;;;;;;;;;;5013776;28;20033;-63
2022/11/24 11:38:19;;;;;;;3.40;0.70;;;;;;;;;;5013091;28;20132;-65
2022/11/24 11:40:48;;;;;;;1.90;0.70;;;;;;;;;;5014585;28;21689;-64
2022/11/24 11:43:18;;;;;;;3.25;0.70;;;;;;;;;;5028024;28;20100;-63
2022/11/24 11:45:54;;;;;;;2.08;0.70;;;;;;;;;;5011821;28;20494;-66
2022/11/24 11:48:32;;;;;;;2.80;0.77;;;;;;;;;;5011873;28;20034;-63
2022/11/24 11:51:02;;;;;;;3.33;0.73;;;;;;;;;;5012515;28;20060;-63
2022/11/24 11:53:44;;;;;;;2.90;0.70;;;;;;;;;;5014691;28;20129;-63
2022/11/24 11:56:28;;;;;;;2.25;0.63;;;;;;;;;;5011721;28;20048;-62
2022/11/24 11:58:59;;;;;;;1.95;0.75;;;;;;;;;;5014524;28;20780;-61
2022/11/24 12:01:44;;;;;;;2.60;0.70;;;;;;;;;;5013365;28;20044;-62
2022/11/24 12:04:34;;;;;;;3.45;0.65;;;;;;;;;;5013775;28;20049;-63
2022/11/24 12:07:08;;;;;;;1.95;0.60;;;;;;;;;;5011146;28;20095;-61
2022/11/24 12:09:47;;;;;;;1.42;0.50;;;;;;;;;;5012501;28;20037;-63
2022/11/24 12:12:31;;;;;;;1.88;0.60;;;;;;;;;;5010834;28;20037;-62
2022/11/24 12:15:00;;;;;;;2.45;0.77;;;;;;;;;;5012932;28;20041;-64
2022/11/24 12:17:27;;;;;;;1.88;0.60;;;;;;;;;;5012260;28;20057;-63
2022/11/24 12:19:53;;;;;;;3.83;0.55;;;;;;;;;;5029326;28;20123;-64
2022/11/24 12:22:39;;;;;;;1.58;0.55;;;;;;;;;;5010779;28;20038;-63
2022/11/24 12:25:15;;;;;;;2.28;0.40;;;;;;;;;;5010669;28;20149;-61
2022/11/24 12:27:41;;;;;;;1.63;0.50;;;;;;;;;;5013750;28;20041;-62
2022/11/24 12:30:11;;;;;;;5.18;0.52;;;;;;;;;;5014384;28;20049;-63
2022/11/24 12:32:53;;;;;;;1.08;0.40;;;;;;;;;;5010376;28;20471;-63
2022/11/24 12:35:22;;;;;;;1.65;0.50;;;;;;;;;;5011016;28;20140;-63
2022/11/24 12:37:49;;;;;;;1.10;0.43;;;;;;;;;;5009276;28;20114;-66
2022/11/24 12:40:21;;;;;;;1.13;0.38;;;;;;;;;;5013653;28;20053;-64
2022/11/24 12:42:57;;;;;;;1.40;0.50;;;;;;;;;;5011846;28;20372;-61
2022/11/24 12:45:59;;;;;;;0.73;0.30;;;;;;;;;;5011094;28;20042;-62
2022/11/24 12:48:37;;;;;;;1.30;0.45;;;;;;;;;;5001662;28;20143;-63
2022/11/24 12:51:06;;;;;;;1.35;0.40;;;;;;;;;;5010620;28;20048;-63
2022/11/24 12:53:33;;;;;;;3.83;0.50;;;;;;;;;;5013048;28;20041;-61
2022/11/24 12:56:11;;;;;;;2.03;0.60;;;;;;;;;;5012040;28;20038;-62
2022/11/24 12:58:44;;;;;;;1.48;0.50;;;;;;;;;;5012409;28;20063;-64
2022/11/24 13:01:23;;;;;;;2.00;0.40;;;;;;;;;;5011188;28;20046;-63
2022/11/24 13:03:50;;;;;;;1.38;0.40;;;;;;;;;;5015048;28;22046;-63
2022/11/24 13:06:19;;;;;;;1.67;0.50;;;;;;;;;;5010177;28;20595;-62
2022/11/24 13:08:46;;;;;;;1.38;0.45;;;;;;;;;;5012291;28;20058;-63
2022/11/24 13:11:21;;;;;;;2.90;0.50;;;;;;;;;;5011000;28;20045;-63
2022/11/24 13:14:02;;;;;;;2.30;0.50;;;;;;;;;;5012338;28;20438;-62
2022/11/24 13:16:29;;;;;;;1.50;0.40;;;;;;;;;;5011474;28;20561;-62
2022/11/24 13:18:59;;;;;;;2.58;0.50;;;;;;;;;;5011858;28;20037;-63
2022/11/24 13:21:35;;;;;;;0.95;0.40;;;;;;;;;;5008897;28;20042;-64
2022/11/24 13:24:03;;;;;;;1.63;0.57;;;;;;;;;;5013196;28;20091;-63
2022/11/24 13:26:39;;;;;;;3.72;0.50;;;;;;;;;;5009330;28;21774;-59
2022/11/24 13:29:05;;;;;;;1.42;0.50;;;;;;;;;;5012902;28;20161;-61
2022/11/24 13:31:32;;;;;;;2.53;0.50;;;;;;;;;;5011349;28;20042;-64
2022/11/24 13:33:58;;;;;;;1.17;0.40;;;;;;;;;;5025712;28;20042;-63
2022/11/24 13:36:25;;;;;;;1.30;0.40;;;;;;;;;;5013246;28;20041;-66
2022/11/24 13:38:53;;;;;;;1.90;0.47;;;;;;;;;;5012812;28;20213;-62
2022/11/24 13:41:32;;;;;;;1.70;0.50;;;;;;;;;;5030084;28;20040;-64
2022/11/24 13:44:25;;;;;;;1.65;0.40;;;;;;;;;;5016627;28;20045;-62
2022/11/24 13:47:02;;;;;;;0.60;0.37;;;;;;;;;;5015655;28;20047;-63
2022/11/24 13:49:38;;;;;;;2.53;0.50;;;;;;;;;;5014192;28;20796;-62
2022/11/24 13:52:23;;;;;;;3.38;0.60;;;;;;;;;;5014089;28;20595;-63
2022/11/24 13:54:50;;;;;;;2.03;0.60;;;;;;;;;;5011742;28;20052;-64
2022/11/24 13:57:36;;;;;;;1.58;0.50;;;;;;;;;;5017622;28;20057;-63
2022/11/24 14:00:02;;;;;;;3.80;0.70;;;;;;;;;;5012035;28;20126;-65
2022/11/24 14:02:29;;;;;;;2.42;0.50;;;;;;;;;;5013602;28;21856;-63
2022/11/24 14:04:57;;;;;;;4.75;0.65;;;;;;;;;;5029986;28;20033;-62
2022/11/24 14:07:24;;;;;;;4.45;0.63;;;;;;;;;;5012109;28;21077;-64
2022/11/24 14:09:51;;;;;;;4.07;0.70;;;;;;;;;;5015594;28;20066;-63
2022/11/24 14:12:20;;;;;;;4.47;0.60;;;;;;;;;;5015697;28;20504;-63
2022/11/24 14:14:47;;;;;;;2.22;0.65;;;;;;;;;;5017291;28;20073;-62
2022/11/24 14:17:14;;;;;;;3.63;0.65;;;;;;;;;;5015687;28;20041;-63
2022/11/24 14:19:41;;;;;;;1.67;0.50;;;;;;;;;;5014118;28;20042;-63
2022/11/24 14:22:22;;;;;;;4.25;0.65;;;;;;;;;;5013995;28;20477;-64
2022/11/24 14:24:59;;;;;;;2.38;0.50;;;;;;;;;;5016093;28;20837;-69
2022/11/24 14:27:36;;;;;;;3.28;0.57;;;;;;;;;;5017427;28;20042;-63
2022/11/24 14:30:22;;;;;;;2.50;0.40;;;;;;;;;;5015214;28;20056;-62
2022/11/24 14:32:56;;;;;;;1.15;0.40;;;;;;;;;;5016559;28;20049;-62
2022/11/24 14:35:30;;;;;;;1.52;0.47;;;;;;;;;;5029308;28;20044;-60
2022/11/24 14:37:56;;;;;;;2.72;0.57;;;;;;;;;;5014486;28;20084;-63
2022/11/24 14:40:40;;;;;;;1.80;0.63;;;;;;;;;;5012161;28;20115;-64
2022/11/24 14:43:15;;;;;;;4.32;0.68;;;;;;;;;;5014135;28;20558;-63
2022/11/24 14:45:52;;;;;;;2.25;0.60;;;;;;;;;;5013081;28;20042;-63
2022/11/24 14:48:23;;;;;;;6.03;0.70;;;;;;;;;;5014434;28;20045;-65
2022/11/24 14:50:49;;;;;;;1.65;0.50;;;;;;;;;;5012929;28;20037;-64
2022/11/24 14:53:18;;;;;;;2.13;0.50;;;;;;;;;;5016232;28;20065;-63
2022/11/24 14:55:45;;;;;;;4.80;0.50;;;;;;;;;;5014931;28;20144;-63
2022/11/24 14:58:29;;;;;;;1.67;0.55;;;;;;;;;;5012799;28;20072;-62
2022/11/24 15:01:33;;;;;;;2.35;0.50;;;;;;;;;;5012415;28;20049;-64